Flight Track Log - Related Links

Times and Time Zones

All times are in EDT time to prevent confusion due to time zone crossing. See the N51FD flight status page for this flight to view local times or setup timezone preferences in your user account.

Time Position Orientation Groundspeed Altitude Reporting Facility
EDT Latitude Longitude Course Direction KTS MPH feet Rate Location/Type
Sun 05:32:36 PM 42.8453 -74.0042 219° Southwest 114 131 1,900  Level Boston Center
Sun 05:33:36 PM 42.8208 -74.0311 219° Southwest 130 150 2,500 720 Climbing Boston Center
Sun 05:34:16 PM 42.7981 -74.0178 157° South 130 150 3,100 716 Climbing Boston Center
Sun 05:34:43 PM 42.7836 -74.0008 139° Southeast 151 174 3,300 600 Climbing Boston Center
Sun 05:35:16 PM 42.7678 -73.9803 136° Southeast 143 165 3,700 700 Climbing Boston Center
Sun 05:35:43 PM 42.7539 -73.9642 140° Southeast 149 171 4,000 656 Climbing Boston Center
Sun 05:36:20 PM 42.7333 -73.9461 147° Southeast 144 166 4,400 673 Climbing Boston Center
Sun 05:37:21 PM 42.7003 -73.9136 144° Southeast 144 166 5,100 706 Climbing Boston Center
Sun 05:37:45 PM 42.6861 -73.9006 146° Southeast 152 175 5,400 500 Climbing Boston Center
Sun 05:38:21 PM 42.6669 -73.8756 136° Southeast 159 183 5,600 197 Climbing Boston Center
Sun 05:38:46 PM 42.6467 -73.8581 148° Southeast 184 212 5,600  Level Boston Center
Sun 05:39:25 PM 42.6214 -73.8322 143° Southeast 184 212 5,600  Level Boston Center
Sun 05:39:49 PM 42.6028 -73.8169 149° Southeast 197 227 5,600 -100 Level Boston Center
Sun 05:40:25 PM 42.5778 -73.7897 141° Southeast 189 217 5,500 -98 Descending Boston Center
Sun 05:40:50 PM 42.5592 -73.7733 147° Southeast 196 226 5,500  Level Boston Center
Sun 05:41:26 PM 42.5300 -73.7425 142° Southeast 195 224 5,500  Level Boston Center
Sun 05:41:50 PM 42.5156 -73.7297 147° Southeast 197 227 5,500  Level Boston Center
Sun 05:42:30 PM 42.4883 -73.6956 137° Southeast 196 226 5,500  Level Boston Center
Sun 05:42:48 PM 42.4725 -73.6833 150° Southeast 196 226 5,500  Level Boston Center
Sun 05:43:31 PM 42.4444 -73.6542 143° Southeast 195 224 5,500 98 Level Boston Center
Sun 05:43:49 PM 42.4250 -73.6383 149° Southeast 194 223 5,600 98 Climbing Boston Center
Sun 05:44:32 PM 42.3961 -73.6075 142° Southeast 196 226 5,600 -97 Level Boston Center
Sun 05:44:51 PM 42.3814 -73.5950 148° Southeast 196 226 5,500 -98 Descending Boston Center
Sun 05:45:33 PM 42.3533 -73.5650 142° Southeast 194 223 5,500  Level Boston Center
Sun 05:45:51 PM 42.3378 -73.5514 147° Southeast 196 226 5,500  Level Boston Center
Sun 05:46:34 PM 42.3133 -73.5281 145° Southeast 196 226 5,500  Level Boston Center
Sun 05:47:38 PM 42.2706 -73.4856 144° Southeast 194 223 5,500  Level Boston Center
Sun 05:48:05 PM 42.2433 -73.4583 143° Southeast 194 223 5,500  Level Boston Center
Sun 05:48:39 PM 42.2186 -73.4342 144° Southeast 195 224 5,500  Level Boston Center
Sun 05:49:06 PM 42.1981 -73.4153 146° Southeast 192 221 5,500  Level Boston Center
Sun 05:49:40 PM 42.1753 -73.3922 143° Southeast 194 223 5,500  Level Boston Center
Sun 05:50:13 PM 42.1475 -73.3672 146° Southeast 196 226 5,500 87 Level Boston Center
Sun 05:50:49 PM 42.1206 -73.3400 143° Southeast 196 226 5,600 66 Climbing Boston Center
Sun 05:51:44 PM 42.0850 -73.3044 143° Southeast 194 223 5,600 -76 Level Boston Center
Sun 05:52:08 PM 42.0625 -73.2864 149° Southeast 196 226 5,500 -98 Descending Boston Center
Sun 05:52:45 PM 42.0369 -73.2581 141° Southeast 197 227 5,500 122 Level Boston Center
Sun 05:52:57 PM 42.0247 -73.2492 152° Southeast 197 227 5,600 83 Climbing Boston Center
Sun 05:53:57 PM 41.9814 -73.2072 144° Southeast 193 222 5,600 -54 Level Boston Center
Sun 05:54:49 PM 41.9489 -73.1761 145° Southeast 196 226 5,500 -48 Descending Boston Center
Sun 05:56:01 PM 41.8928 -73.1228 145° Southeast 193 222 5,500  Level Boston Center
Sun 05:56:50 PM 41.8581 -73.0892 144° Southeast 194 223 5,500  Level Boston Center
Sun 05:57:51 PM 41.8119 -73.0442 144° Southeast 193 222 5,500  Level Boston Center
Sun 05:58:03 PM 41.8042 -73.0383 151° Southeast 189 217 5,500  Level Boston Center
Sun 05:58:55 PM 41.7681 -73.0028 144° Southeast 193 222 5,500  Level Boston Center
Sun 05:59:55 PM 41.7228 -72.9619 146° Southeast 194 223 5,500  Level Boston Center
Sun 06:00:56 PM 41.6756 -72.9172 145° Southeast 195 224 5,500  Level Boston Center
Sun 06:01:59 PM 41.6314 -72.8764 145° Southeast 194 223 5,500  Level Boston Center
Sun 06:03:06 PM 41.5814 -72.8281 144° Southeast 189 217 5,500  Level Boston Center
Sun 06:04:00 PM 41.5422 -72.7922 146° Southeast 191 220 5,500  Level Boston Center
Sun 06:05:04 PM 41.4992 -72.7517 145° Southeast 191 220 5,500  Level Boston Center
Sun 06:06:04 PM 41.4556 -72.7114 145° Southeast 191 220 5,500  Level Boston Center
Sun 06:07:05 PM 41.4086 -72.6678 145° Southeast 191 220 5,500  Level Boston Center
Sun 06:08:09 PM 41.3650 -72.6258 144° Southeast 192 221 5,500  Level Boston Center
Sun 06:09:09 PM 41.3217 -72.5856 145° Southeast 191 220 5,500  Level Boston Center
Sun 06:10:09 PM 41.2747 -72.5425 145° Southeast 192 221 5,500 -48 Level Boston Center
Sun 06:11:13 PM 41.2350 -72.5050 145° Southeast 192 221 5,400 -48 Descending Boston Center
Sun 06:12:14 PM 41.1900 -72.4639 145° Southeast 192 221 5,400 -99 Level Boston Center
Sun 06:13:14 PM 41.1475 -72.4247 145° Southeast 191 220 5,200 -629 Descending Boston Center
Sun 06:14:18 PM 41.1047 -72.3856 145° Southeast 186 214 4,100 -1,008 Descending Boston Center
Sun 06:15:19 PM 41.0500 -72.3364 146° Southeast 193 222 3,100 -1,091 Descending Boston Center
Sun 06:16:19 PM 40.9986 -72.3414 184° South 187 215 1,900 -629 Descending Boston Center
Sun 06:17:23 PM 40.9586 -72.3417 180° South 176 203 1,800 -94 Descending Boston Center
Sun 06:19:00 PM 40.9500 -72.2500 150° Southeast  Level FlightAware Approximate

Login

Don't have an account? Register now (free) for customized features, flight alerts, and more!